createdAt,value
2022-12-15T10:08:03.113Z,24.27
2022-12-15T10:09:37.482Z,25.05
2022-12-15T10:11:20.353Z,22.40
2022-12-15T10:13:02.091Z,21.73
2022-12-15T10:14:53.867Z,19.73
2022-12-15T10:16:36.480Z,19.80
2022-12-15T10:18:14.318Z,19.23
2022-12-15T10:19:57.924Z,19.83
2022-12-15T10:21:31.447Z,19.10
2022-12-15T10:23:13.507Z,18.52
2022-12-15T10:25:09.106Z,19.30
2022-12-15T10:26:37.522Z,17.63
2022-12-15T10:29:07.073Z,19.58
2022-12-15T10:30:50.927Z,17.38
2022-12-15T10:32:43.033Z,18.23
2022-12-15T10:34:36.570Z,17.23
2022-12-15T10:36:15.009Z,18.88
2022-12-15T10:37:47.073Z,19.45
2022-12-15T10:39:23.797Z,19.05
2022-12-15T10:41:04.516Z,16.92
2022-12-15T10:42:47.541Z,17.00
2022-12-15T10:44:32.003Z,17.80
2022-12-15T10:46:04.126Z,16.95
2022-12-15T10:47:36.607Z,18.02
2022-12-15T10:49:08.276Z,18.13
2022-12-15T10:50:40.191Z,17.17
2022-12-15T10:52:36.212Z,17.80
2022-12-15T10:54:14.550Z,16.45
2022-12-15T10:55:49.805Z,17.40
2022-12-15T10:57:28.259Z,16.35
2022-12-15T10:59:22.030Z,16.85
2022-12-15T11:01:09.472Z,15.55
2022-12-15T11:02:42.469Z,15.77
2022-12-15T11:04:28.941Z,16.30
2022-12-15T11:06:00.795Z,15.40
2022-12-15T11:07:42.785Z,16.75
2022-12-15T11:09:38.561Z,15.68
2022-12-15T11:11:50.391Z,16.58
2022-12-15T11:14:54.865Z,15.77
2022-12-15T11:16:27.187Z,14.43
2022-12-15T11:18:16.003Z,13.57
2022-12-15T11:20:02.800Z,13.38
2022-12-15T11:21:42.873Z,12.18
2022-12-15T11:23:28.886Z,12.05
2022-12-15T11:25:29.336Z,11.38
2022-12-15T11:27:12.902Z,10.65
2022-12-15T11:28:51.009Z,11.20
2022-12-15T11:30:33.916Z,11.90
2022-12-15T11:33:57.934Z,12.55
2022-12-15T11:35:38.841Z,13.32
2022-12-15T11:37:40.127Z,14.00
2022-12-15T11:39:28.618Z,14.50
2022-12-15T11:41:12.648Z,14.23
2022-12-15T11:42:54.216Z,14.80
2022-12-15T11:45:02.646Z,12.93
2022-12-15T11:46:45.643Z,12.52
2022-12-15T11:48:46.598Z,13.52
2022-12-15T11:50:33.663Z,12.63
2022-12-15T11:52:17.446Z,13.05
2022-12-15T11:53:58.596Z,12.27
2022-12-15T11:55:47.567Z,12.57
2022-12-15T11:57:28.109Z,12.15
2022-12-15T11:59:20.243Z,12.57
2022-12-15T12:01:27.156Z,11.63
2022-12-15T12:03:18.117Z,12.88
2022-12-15T12:05:08.617Z,14.05
2022-12-15T12:06:55.959Z,14.43
2022-12-15T12:08:36.779Z,14.65
2022-12-15T12:10:30.122Z,15.48
2022-12-15T12:12:12.016Z,15.90
2022-12-15T12:13:54.359Z,16.58
2022-12-15T12:15:32.654Z,17.00
2022-12-15T12:17:15.520Z,16.42
2022-12-15T12:19:09.968Z,15.60
2022-12-15T12:20:58.563Z,14.52
2022-12-15T12:22:42.982Z,14.20
2022-12-15T12:24:14.697Z,12.93
2022-12-15T12:25:55.802Z,11.65
2022-12-15T12:28:00.152Z,12.65
2022-12-15T12:29:40.221Z,11.23
2022-12-15T12:31:27.026Z,11.85
2022-12-15T12:33:08.322Z,11.48
2022-12-15T12:35:30.367Z,11.57
2022-12-15T12:36:48.867Z,12.30
2022-12-15T12:38:29.328Z,11.30
2022-12-15T12:40:07.633Z,10.63
2022-12-15T12:41:44.343Z,11.55
2022-12-15T12:43:33.684Z,11.23
2022-12-15T12:45:06.537Z,12.23
2022-12-15T12:46:47.040Z,10.73
2022-12-15T12:48:49.658Z,11.98
2022-12-15T12:50:25.952Z,8.18
2022-12-15T12:52:00.860Z,11.13
2022-12-15T12:53:34.764Z,11.02
2022-12-15T12:55:14.619Z,10.73
2022-12-15T12:56:50.402Z,10.80
2022-12-15T12:58:41.564Z,11.23
2022-12-15T13:00:16.913Z,10.75
2022-12-15T13:01:49.060Z,11.70
2022-12-15T13:03:21.616Z,12.55
2022-12-15T13:05:27.403Z,12.25
2022-12-15T13:07:03.221Z,12.68
2022-12-15T13:08:50.893Z,12.60
2022-12-15T13:10:25.537Z,12.55
2022-12-15T13:12:14.977Z,13.52
2022-12-15T13:13:53.698Z,13.23
2022-12-15T13:15:27.890Z,13.60
2022-12-15T13:17:26.457Z,13.50
2022-12-15T13:19:05.152Z,12.88
2022-12-15T13:20:38.421Z,13.55
2022-12-15T13:22:30.377Z,13.27
2022-12-15T13:24:02.326Z,13.60
2022-12-15T13:25:40.479Z,14.23
2022-12-15T13:27:15.408Z,14.38
2022-12-15T13:28:50.732Z,15.82
2022-12-15T13:30:22.486Z,15.18
2022-12-15T13:31:54.532Z,15.68
2022-12-15T13:33:27.364Z,14.27
2022-12-15T13:35:23.409Z,15.18
2022-12-15T13:36:57.596Z,14.38
2022-12-15T13:38:54.306Z,14.48
2022-12-15T13:40:38.071Z,14.15
2022-12-15T13:42:33.398Z,13.93
2022-12-15T13:44:01.743Z,13.82
2022-12-15T13:45:39.944Z,14.30
2022-12-15T13:47:14.529Z,13.02
2022-12-15T13:48:51.389Z,13.38
2022-12-15T13:51:05.996Z,13.10
2022-12-15T13:53:17.845Z,11.90
2022-12-15T13:54:55.022Z,12.45
2022-12-15T13:56:37.035Z,11.57
2022-12-15T13:58:17.715Z,10.85
2022-12-15T14:00:01.883Z,11.02
2022-12-15T14:01:52.032Z,10.93
2022-12-15T14:03:25.080Z,10.85
2022-12-15T14:05:18.889Z,11.10
2022-12-15T14:07:10.635Z,11.80
2022-12-15T14:08:42.460Z,12.05
2022-12-15T14:10:32.824Z,12.90
2022-12-15T14:12:08.014Z,11.82
2022-12-15T14:13:40.450Z,11.05
2022-12-15T14:15:15.045Z,11.63
2022-12-15T14:16:52.768Z,11.75
2022-12-15T14:18:28.540Z,11.27
2022-12-15T14:20:12.222Z,12.23
2022-12-15T14:21:52.721Z,12.05
2022-12-15T14:23:27.811Z,7.78
2022-12-15T14:25:13.561Z,12.63
2022-12-15T14:26:45.317Z,12.73
2022-12-15T14:28:32.724Z,12.77
2022-12-15T14:30:19.785Z,12.32
2022-12-15T14:31:57.606Z,11.75
2022-12-15T14:33:33.903Z,11.35
2022-12-15T14:35:09.103Z,11.30
2022-12-15T14:36:43.444Z,11.82
2022-12-15T14:38:18.084Z,11.15
2022-12-15T14:41:49.112Z,10.50
2022-12-15T14:43:38.083Z,10.88
2022-12-15T14:45:21.919Z,11.38
2022-12-15T14:46:55.008Z,10.82
2022-12-15T14:48:41.006Z,10.57
2022-12-15T14:50:25.401Z,11.18
2022-12-15T14:52:01.718Z,12.45
2022-12-15T14:53:37.920Z,11.98
2022-12-15T14:55:27.843Z,11.57
2022-12-15T14:57:01.752Z,12.10
2022-12-15T14:58:36.427Z,11.35
2022-12-15T15:00:28.129Z,11.18
2022-12-15T15:02:28.553Z,10.60
2022-12-15T15:03:14.381Z,10.57
2022-12-15T15:04:06.612Z,10.43
2022-12-15T15:05:40.924Z,11.48
2022-12-15T15:07:18.392Z,11.38
2022-12-15T15:08:52.821Z,10.63
2022-12-15T15:10:29.293Z,10.88
2022-12-15T15:12:04.844Z,12.88
2022-12-15T15:13:40.839Z,11.73
2022-12-15T15:15:18.716Z,11.50
2022-12-15T15:17:05.096Z,10.98
2022-12-15T15:18:36.978Z,10.82
2022-12-15T15:20:26.875Z,10.68
2022-12-15T15:22:02.090Z,10.65
2022-12-15T15:23:34.021Z,10.20
2022-12-15T15:25:39.350Z,11.43
2022-12-15T15:27:29.916Z,10.88
2022-12-15T15:29:01.823Z,11.27
2022-12-15T15:30:48.150Z,11.02
2022-12-15T15:32:22.897Z,10.50
2022-12-15T15:33:59.522Z,11.30
2022-12-15T15:35:33.952Z,10.82
2022-12-15T15:37:18.154Z,10.57
2022-12-15T15:38:52.206Z,10.40
2022-12-15T15:40:24.085Z,10.40
2022-12-15T15:41:55.837Z,10.48
2022-12-15T15:43:28.766Z,9.68
2022-12-15T15:45:00.535Z,10.73
2022-12-15T15:46:35.972Z,9.93
2022-12-15T15:48:14.351Z,9.32
2022-12-15T15:49:46.818Z,9.48
2022-12-15T15:51:19.006Z,10.48
2022-12-15T15:52:51.136Z,9.75
2022-12-15T15:54:26.958Z,9.93
2022-12-15T15:55:59.600Z,10.40
2022-12-15T15:57:31.374Z,10.27
2022-12-15T15:59:14.283Z,10.60
2022-12-15T16:00:46.047Z,9.80
2022-12-15T16:02:18.033Z,10.70
2022-12-15T16:03:49.969Z,10.50
2022-12-15T16:05:21.716Z,10.68
2022-12-15T16:06:53.865Z,11.20
2022-12-15T16:08:32.024Z,11.65
2022-12-15T16:10:04.738Z,11.10
2022-12-15T16:11:36.626Z,12.23
2022-12-15T16:13:11.335Z,12.43
2022-12-15T16:14:43.078Z,12.70
2022-12-15T16:16:24.907Z,11.93
2022-12-15T16:17:56.688Z,12.90
2022-12-15T16:19:28.779Z,13.35
2022-12-15T16:21:00.502Z,12.70
2022-12-15T16:22:33.745Z,13.43
2022-12-15T16:24:17.699Z,13.43
2022-12-15T16:25:57.700Z,13.60
2022-12-15T16:27:30.566Z,12.77
2022-12-15T16:29:02.291Z,13.30
2022-12-15T16:30:34.034Z,14.80
2022-12-15T16:32:08.717Z,14.32
2022-12-15T16:33:40.460Z,16.63
2022-12-15T16:35:12.883Z,17.30
2022-12-15T16:36:45.159Z,16.48
2022-12-15T16:38:33.004Z,17.10
2022-12-15T16:40:17.732Z,17.35
2022-12-15T16:41:49.522Z,18.38
2022-12-15T16:43:24.165Z,18.77
2022-12-15T16:44:55.916Z,19.33
2022-12-15T16:46:27.767Z,18.58
2022-12-15T16:47:59.600Z,18.38
2022-12-15T16:49:35.217Z,18.23
2022-12-15T16:51:34.134Z,18.17
2022-12-15T16:53:09.533Z,17.80
2022-12-15T16:54:41.944Z,17.50
2022-12-15T16:56:15.808Z,17.27
2022-12-15T16:57:48.173Z,18.23
2022-12-15T16:59:32.964Z,20.77
2022-12-15T17:01:05.865Z,19.02
2022-12-15T17:02:38.745Z,19.50
2022-12-15T17:04:11.148Z,20.85
2022-12-15T17:05:45.445Z,20.15
2022-12-15T17:07:20.405Z,22.17
2022-12-15T17:08:56.614Z,23.17
2022-12-15T17:10:30.329Z,23.15
2022-12-15T17:12:02.321Z,21.58
2022-12-15T17:13:45.677Z,22.70
2022-12-15T17:15:24.445Z,24.65
2022-12-15T17:16:56.229Z,22.65
2022-12-15T17:18:28.574Z,21.85
2022-12-15T17:21:53.932Z,20.77
2022-12-15T17:23:25.764Z,22.55
2022-12-15T17:24:57.572Z,20.45
2022-12-15T17:26:35.496Z,23.77
2022-12-15T17:28:14.092Z,24.30
2022-12-15T17:29:45.983Z,23.67
2022-12-15T17:31:20.290Z,23.60
2022-12-15T17:32:52.211Z,27.58
2022-12-15T17:34:30.784Z,26.38
2022-12-15T17:36:12.490Z,26.25
2022-12-15T17:37:45.105Z,25.98
2022-12-15T17:39:19.288Z,27.83
2022-12-15T17:40:52.176Z,26.52
2022-12-15T17:42:23.979Z,26.67
2022-12-15T17:44:31.168Z,25.70
2022-12-15T17:47:24.315Z,27.10
2022-12-15T17:48:56.036Z,27.35
2022-12-15T17:50:27.884Z,28.33
2022-12-15T17:52:03.320Z,26.13
2022-12-15T17:53:35.251Z,28.08
2022-12-15T17:55:17.617Z,25.98
2022-12-15T17:56:50.011Z,25.77
2022-12-15T17:58:24.609Z,27.15
2022-12-15T17:59:56.319Z,27.60
2022-12-15T18:01:28.148Z,28.48
2022-12-15T18:03:00.820Z,28.13
2022-12-15T18:04:32.784Z,31.35
2022-12-15T18:06:11.560Z,29.38
2022-12-15T18:07:43.689Z,28.35
2022-12-15T18:09:18.291Z,28.38
2022-12-15T18:10:52.513Z,29.88
2022-12-15T18:12:27.018Z,27.00
2022-12-15T18:13:59.068Z,28.40
2022-12-15T18:15:32.589Z,28.70
2022-12-15T18:17:04.316Z,27.73
2022-12-15T18:18:36.062Z,28.27
2022-12-15T18:20:08.467Z,27.83
2022-12-15T18:21:40.230Z,28.15
2022-12-15T18:23:21.718Z,27.30
2022-12-15T18:26:25.934Z,26.30
2022-12-15T18:28:00.694Z,26.58
2022-12-15T18:29:32.457Z,26.05
2022-12-15T18:31:14.082Z,27.35
2022-12-15T18:32:46.563Z,29.10
2022-12-15T18:34:21.428Z,25.58
2022-12-15T18:35:53.196Z,26.05
2022-12-15T18:37:25.376Z,24.23
2022-12-15T18:38:57.159Z,23.70
2022-12-15T18:40:30.155Z,23.95
2022-12-15T18:42:03.104Z,22.58
2022-12-15T18:43:35.539Z,21.92
2022-12-15T18:45:20.551Z,22.70
2022-12-15T18:46:53.304Z,21.02
2022-12-15T18:48:32.555Z,22.38
2022-12-15T18:50:04.463Z,25.38
2022-12-15T18:51:36.251Z,25.25
2022-12-15T18:53:14.725Z,26.30
2022-12-15T18:54:48.571Z,25.40
2022-12-15T18:56:21.699Z,26.17
2022-12-15T18:57:53.616Z,27.15
2022-12-15T18:59:27.317Z,27.33
2022-12-15T19:01:00.658Z,25.35
2022-12-15T19:02:32.610Z,24.75
2022-12-15T19:04:04.484Z,25.40
2022-12-15T19:05:37.488Z,25.65
2022-12-15T19:07:11.365Z,25.52
2022-12-15T19:08:43.166Z,26.92
2022-12-15T19:10:15.037Z,25.67
2022-12-15T19:12:06.928Z,26.17
2022-12-15T19:13:39.597Z,25.85
2022-12-15T19:15:17.397Z,27.00
2022-12-15T19:17:07.568Z,24.23
2022-12-15T19:18:57.859Z,25.92
2022-12-15T19:20:47.979Z,26.75
2022-12-15T19:22:29.756Z,25.38
2022-12-15T19:24:01.693Z,29.67
2022-12-15T19:25:34.283Z,28.70
2022-12-15T19:27:11.754Z,26.48
2022-12-15T19:28:43.457Z,27.92
2022-12-15T19:30:17.946Z,27.30
2022-12-15T19:31:49.882Z,26.10
2022-12-15T19:33:21.924Z,25.00
2022-12-15T19:34:53.675Z,26.25
2022-12-15T19:36:26.428Z,24.15
2022-12-15T19:38:01.873Z,25.13
2022-12-15T19:39:35.262Z,25.67
2022-12-15T19:41:07.181Z,24.40
2022-12-15T19:42:40.953Z,25.20
2022-12-15T19:44:16.334Z,27.55
2022-12-15T19:45:49.016Z,26.85
2022-12-15T19:47:20.972Z,27.25
2022-12-15T19:48:52.738Z,28.02
2022-12-15T19:50:37.081Z,27.27
2022-12-15T19:52:14.916Z,27.52
2022-12-15T19:53:48.032Z,27.00
2022-12-15T19:55:26.485Z,28.00
2022-12-15T19:56:58.191Z,27.30
2022-12-15T19:58:32.652Z,26.70
2022-12-15T20:00:15.574Z,26.75
2022-12-15T20:01:47.393Z,25.45
2022-12-15T20:03:20.726Z,24.23
2022-12-15T20:04:52.513Z,25.25
2022-12-15T20:06:27.234Z,23.88
2022-12-15T20:07:59.016Z,25.15
2022-12-15T20:09:30.782Z,22.67
2022-12-15T20:11:02.624Z,23.13
2022-12-15T20:12:34.374Z,22.02
2022-12-15T20:14:12.728Z,22.67
2022-12-15T20:15:44.486Z,21.52
2022-12-15T20:17:16.411Z,22.85
2022-12-15T20:18:50.413Z,23.70
2022-12-15T20:20:23.829Z,22.42
2022-12-15T20:21:55.586Z,22.30
2022-12-15T20:23:29.605Z,20.15
2022-12-15T20:25:02.196Z,21.80
2022-12-15T20:26:35.894Z,22.45
2022-12-15T20:28:15.898Z,24.35
2022-12-15T20:29:47.676Z,24.80
2022-12-15T20:31:21.812Z,23.60
2022-12-15T20:32:53.951Z,23.92
2022-12-15T20:34:25.894Z,28.00
2022-12-15T20:35:57.615Z,28.80
2022-12-15T20:37:30.355Z,26.85
2022-12-15T20:39:02.095Z,27.17
2022-12-15T20:40:34.348Z,25.90
2022-12-15T20:42:06.143Z,26.65
2022-12-15T20:43:37.914Z,24.33
2022-12-15T20:45:13.984Z,23.98
2022-12-15T20:46:46.440Z,23.42
2022-12-15T20:48:18.631Z,21.90
2022-12-15T20:49:52.758Z,21.48
2022-12-15T20:51:30.656Z,21.17
2022-12-15T20:53:03.197Z,20.70
2022-12-15T20:54:35.723Z,19.92
2022-12-15T20:56:08.195Z,20.38
2022-12-15T20:57:40.050Z,19.95
2022-12-15T20:59:12.311Z,20.98
2022-12-15T21:00:45.446Z,19.25
2022-12-15T21:02:20.004Z,21.00
2022-12-15T21:03:55.494Z,20.80
2022-12-15T21:05:27.313Z,20.25
2022-12-15T21:06:59.065Z,19.83
2022-12-15T21:08:32.243Z,19.65
2022-12-15T21:10:04.159Z,20.23
2022-12-15T21:11:36.153Z,20.05
2022-12-15T21:13:15.490Z,20.35
2022-12-15T21:14:48.817Z,20.23
2022-12-15T21:16:26.625Z,20.63
2022-12-15T21:18:40.276Z,19.63
2022-12-15T21:21:27.453Z,20.38
2022-12-15T21:22:59.217Z,21.48
2022-12-15T21:24:31.667Z,23.92
2022-12-15T21:26:04.099Z,22.83
2022-12-15T21:27:35.885Z,21.73
2022-12-15T21:29:13.681Z,22.33
2022-12-15T21:30:45.831Z,22.27
2022-12-15T21:32:17.744Z,21.67
2022-12-15T21:33:49.820Z,21.27
2022-12-15T21:35:21.545Z,20.40
2022-12-15T21:36:55.023Z,21.38
2022-12-15T21:38:40.180Z,20.08
2022-12-15T21:40:26.066Z,20.02
2022-12-15T21:42:16.185Z,19.83
2022-12-15T21:43:48.793Z,18.30
2022-12-15T21:45:25.240Z,21.27
2022-12-15T21:46:57.360Z,21.27
2022-12-15T21:48:47.897Z,21.13
2022-12-15T21:50:19.667Z,21.58
2022-12-15T21:51:58.056Z,21.95
2022-12-15T21:53:30.057Z,22.25
2022-12-15T21:55:01.861Z,21.63
2022-12-15T21:56:33.595Z,22.20
2022-12-15T21:58:18.175Z,24.17
2022-12-15T21:59:49.924Z,26.27
2022-12-15T22:01:27.810Z,25.23
2022-12-15T22:02:59.649Z,24.50
2022-12-15T22:04:34.572Z,25.65
2022-12-15T22:06:06.386Z,24.30
2022-12-15T22:07:38.144Z,23.58
2022-12-15T22:09:11.566Z,24.45
2022-12-15T22:10:45.813Z,24.48
2022-12-15T22:12:23.476Z,23.35
2022-12-15T22:13:57.094Z,25.65
2022-12-15T22:15:29.025Z,24.35
2022-12-15T22:17:11.758Z,24.55
2022-12-15T22:18:44.333Z,23.92
2022-12-15T22:20:20.537Z,24.23
2022-12-15T22:21:52.507Z,23.40
2022-12-15T22:23:24.249Z,23.27
2022-12-15T22:24:55.996Z,24.35
2022-12-15T22:26:31.335Z,22.98
2022-12-15T22:28:03.224Z,24.05
2022-12-15T22:29:35.181Z,23.70
2022-12-15T22:31:07.180Z,23.33
2022-12-15T22:32:39.052Z,24.15
2022-12-15T22:34:13.962Z,22.42
2022-12-15T22:35:45.677Z,22.73
2022-12-15T22:37:17.400Z,23.40
2022-12-15T22:38:49.137Z,22.75
2022-12-15T22:40:22.412Z,22.20
2022-12-15T22:41:54.224Z,22.23
2022-12-15T22:43:47.914Z,22.95
2022-12-15T22:45:21.339Z,22.00
2022-12-15T22:46:55.883Z,21.98
2022-12-15T22:48:34.470Z,21.48
2022-12-15T22:50:07.201Z,20.90
2022-12-15T22:51:38.914Z,22.08
2022-12-15T22:53:20.417Z,20.95
2022-12-15T22:56:36.789Z,19.55
2022-12-15T22:58:12.473Z,20.27
2022-12-15T22:59:49.444Z,19.77
2022-12-15T23:01:21.284Z,18.90
2022-12-15T23:02:53.331Z,20.60
2022-12-15T23:04:25.345Z,20.35
2022-12-15T23:05:57.309Z,20.67
2022-12-15T23:07:29.183Z,20.73
2022-12-15T23:09:00.915Z,19.73
2022-12-15T23:10:51.316Z,21.30
2022-12-15T23:12:23.389Z,21.63
2022-12-15T23:13:55.132Z,21.60
2022-12-15T23:15:47.378Z,22.33
2022-12-15T23:17:19.169Z,20.95
2022-12-15T23:18:55.461Z,23.23
2022-12-15T23:20:27.180Z,21.92
2022-12-15T23:21:58.923Z,22.65
2022-12-15T23:23:32.482Z,19.88
2022-12-15T23:25:05.041Z,20.80
2022-12-15T23:26:36.790Z,20.50
2022-12-15T23:28:08.589Z,21.60
2022-12-15T23:29:40.296Z,21.55
2022-12-15T23:31:12.312Z,21.17
2022-12-15T23:32:44.123Z,20.58
2022-12-15T23:34:15.893Z,21.05
2022-12-15T23:35:47.961Z,21.35
2022-12-15T23:37:19.703Z,21.33
2022-12-15T23:38:55.073Z,21.63
2022-12-15T23:40:26.852Z,21.13
2022-12-15T23:41:58.583Z,22.23
2022-12-15T23:43:33.414Z,21.63
2022-12-15T23:45:05.772Z,21.65
2022-12-15T23:46:37.576Z,20.60
2022-12-15T23:48:10.404Z,20.92
2022-12-15T23:49:42.175Z,19.42
2022-12-15T23:51:19.399Z,20.90
2022-12-15T23:52:51.938Z,21.27
2022-12-15T23:54:23.784Z,21.30
2022-12-15T23:55:55.513Z,21.13
2022-12-15T23:57:28.728Z,19.42
2022-12-15T23:59:00.482Z,20.55
